Time;durP1;ratioP1;P1;durP2;ratioP2;P2;SDS_P1;SDS_P2;PMS_P1;PMS_P2;Temp;Humidity;BMP_temperature;BMP_pressure;BME280_temperature;BME280_humidity;BME280_pressure;Samples;Min_cycle;Max_cycle;Signal;HPM_P1;HPM_P2
2023/01/08 00:00:16;;;;;;;2.80;2.20;;;7.40;99.90;;;;;;5007572;28;20225;-80
2023/01/08 00:02:44;;;;;;;2.63;2.13;;;7.30;99.90;;;;;;5004959;28;20404;-80
2023/01/08 00:05:11;;;;;;;2.70;2.10;;;7.30;99.90;;;;;;4997342;28;20233;-80
2023/01/08 00:07:38;;;;;;;4.93;2.10;;;7.40;99.90;;;;;;4989146;28;20230;-81
2023/01/08 00:10:05;;;;;;;2.37;2.10;;;7.30;99.90;;;;;;4997712;28;20210;-80
2023/01/08 00:12:33;;;;;;;2.60;2.20;;;7.30;99.90;;;;;;4994616;28;20250;-80
2023/01/08 00:15:00;;;;;;;2.03;1.83;;;7.30;99.90;;;;;;4979954;28;20232;-80
2023/01/08 00:17:27;;;;;;;3.00;2.20;;;7.40;99.90;;;;;;5002046;28;20226;-80
2023/01/08 00:19:55;;;;;;;2.57;2.03;;;7.30;99.90;;;;;;4987117;28;20234;-80
2023/01/08 00:22:22;;;;;;;3.47;2.20;;;7.30;99.90;;;;;;4983877;28;20721;-80
2023/01/08 00:24:49;;;;;;;3.03;2.10;;;7.30;99.90;;;;;;5002345;28;20391;-80
2023/01/08 00:27:16;;;;;;;2.80;2.40;;;7.40;99.90;;;;;;5000291;28;20230;-80
2023/01/08 00:29:42;;;;;;;2.23;2.03;;;7.40;99.90;;;;;;5001393;28;20306;-80
2023/01/08 00:32:09;;;;;;;3.10;2.20;;;7.40;99.90;;;;;;4999644;28;21252;-80
2023/01/08 00:34:36;;;;;;;3.33;2.30;;;7.40;99.90;;;;;;4981996;28;20768;-80
2023/01/08 00:37:04;;;;;;;2.67;2.13;;;7.40;99.90;;;;;;4998005;28;20286;-80
2023/01/08 00:39:30;;;;;;;2.57;2.30;;;7.40;99.90;;;;;;4986827;28;20260;-80
2023/01/08 00:41:57;;;;;;;3.83;2.33;;;7.40;99.90;;;;;;5002418;28;20226;-79
2023/01/08 00:44:24;;;;;;;2.30;2.10;;;7.40;99.90;;;;;;4989088;28;20235;-79
2023/01/08 00:46:50;;;;;;;2.83;2.40;;;7.40;99.90;;;;;;5004784;28;20280;-80
2023/01/08 00:49:17;;;;;;;2.40;2.17;;;7.50;99.90;;;;;;5005712;28;20311;-80
2023/01/08 00:51:44;;;;;;;2.60;2.30;;;7.50;99.90;;;;;;4990951;28;20232;-80
2023/01/08 00:54:12;;;;;;;3.00;2.27;;;7.50;99.90;;;;;;4999304;28;20401;-80
2023/01/08 00:56:39;;;;;;;2.93;2.17;;;7.50;99.90;;;;;;5004641;28;20234;-80
2023/01/08 00:59:06;;;;;;;2.40;2.20;;;7.50;99.90;;;;;;4989519;28;20913;-81
2023/01/08 01:01:33;;;;;;;3.40;2.37;;;7.40;99.90;;;;;;5005797;28;20678;-80
2023/01/08 01:04:00;;;;;;;2.73;2.43;;;7.40;99.90;;;;;;4985275;28;20227;-80
2023/01/08 01:06:27;;;;;;;2.47;2.20;;;7.40;99.90;;;;;;4978331;28;20248;-81
2023/01/08 01:08:53;;;;;;;2.60;2.40;;;7.30;99.90;;;;;;4998402;28;20606;-80
2023/01/08 01:11:24;;;;;;;3.23;2.77;;;7.30;99.90;;;;;;5005395;28;20266;-81
2023/01/08 01:13:51;;;;;;;3.00;2.27;;;7.30;99.90;;;;;;5002679;28;20253;-80
2023/01/08 01:16:18;;;;;;;2.27;2.00;;;7.30;99.90;;;;;;4996971;28;20802;-80
2023/01/08 01:18:44;;;;;;;3.20;2.20;;;7.30;99.90;;;;;;5000513;28;20225;-80
2023/01/08 01:21:21;;;;;;;2.70;2.40;;;7.30;99.90;;;;;;5009472;28;20230;-81
2023/01/08 01:23:47;;;;;;;3.93;2.30;;;7.30;99.90;;;;;;4981770;28;20319;-80
2023/01/08 01:26:16;;;;;;;2.53;2.33;;;7.30;99.90;;;;;;4989237;28;20232;-80
2023/01/08 01:28:47;;;;;;;3.07;2.57;;;7.40;99.90;;;;;;5001133;28;20278;-79
2023/01/08 01:31:14;;;;;;;2.63;2.00;;;7.30;99.90;;;;;;5002873;28;20808;-80
2023/01/08 01:33:40;;;;;;;3.07;2.63;;;7.40;99.90;;;;;;5001683;28;20231;-80
2023/01/08 01:36:09;;;;;;;3.20;2.33;;;7.40;99.90;;;;;;4979927;28;20896;-80
2023/01/08 01:38:35;;;;;;;3.13;2.50;;;7.40;99.90;;;;;;4998168;28;20922;-81
2023/01/08 01:41:02;;;;;;;3.67;2.50;;;7.40;99.90;;;;;;4985717;28;20315;-79
2023/01/08 01:43:37;;;;;;;4.47;2.50;;;7.50;99.90;;;;;;4994467;28;20318;-81
2023/01/08 01:46:16;;;;;;;3.33;2.43;;;7.40;99.90;;;;;;4995281;28;20241;-80
2023/01/08 01:48:43;;;;;;;2.63;2.30;;;7.50;99.90;;;;;;4998340;28;20227;-80
2023/01/08 01:51:10;;;;;;;2.53;2.20;;;7.50;99.90;;;;;;4983375;28;20851;-80
2023/01/08 01:53:40;;;;;;;2.63;2.37;;;7.50;99.90;;;;;;4994669;28;20227;-81
2023/01/08 01:56:08;;;;;;;3.10;2.10;;;7.50;99.90;;;;;;4989512;28;20221;-80
2023/01/08 01:58:35;;;;;;;2.50;2.20;;;7.50;99.90;;;;;;4990972;28;20316;-80
2023/01/08 02:01:07;;;;;;;4.03;2.20;;;7.50;99.90;;;;;;4981100;28;20216;-80
2023/01/08 02:03:38;;;;;;;3.90;2.50;;;7.50;99.90;;;;;;4981738;28;20222;-80
2023/01/08 02:06:15;;;;;;;2.73;2.40;;;7.60;99.90;;;;;;4999708;28;20285;-80
2023/01/08 02:08:52;;;;;;;3.67;2.50;;;7.60;99.90;;;;;;4998068;28;20306;-79
2023/01/08 02:11:26;;;;;;;3.40;2.10;;;7.60;99.90;;;;;;4987293;28;20226;-80
2023/01/08 02:14:00;;;;;;;2.80;2.50;;;7.60;99.90;;;;;;5001379;28;20949;-79
2023/01/08 02:16:34;;;;;;;3.37;2.40;;;7.60;99.90;;;;;;4986541;28;20858;-79
2023/01/08 02:19:07;;;;;;;3.50;2.30;;;7.60;99.90;;;;;;5002313;28;20692;-79
2023/01/08 02:21:45;;;;;;;2.70;2.40;;;7.60;99.90;;;;;;5007423;28;20226;-79
2023/01/08 02:24:19;;;;;;;2.50;2.20;;;7.60;99.90;;;;;;5006450;28;20219;-79
2023/01/08 02:26:48;;;;;;;3.50;2.63;;;7.70;99.90;;;;;;4997401;28;20242;-79
2023/01/08 02:29:20;;;;;;;3.80;2.40;;;7.70;99.90;;;;;;4995352;28;20315;-79
2023/01/08 02:31:47;;;;;;;3.30;2.50;;;7.70;99.90;;;;;;4996770;28;20226;-79
2023/01/08 02:34:13;;;;;;;2.50;2.20;;;7.70;99.90;;;;;;4995083;28;20862;-80
2023/01/08 02:36:43;;;;;;;3.13;2.20;;;7.70;99.90;;;;;;5003284;28;20239;-79
2023/01/08 02:39:29;;;;;;;4.03;2.20;;;7.70;99.90;;;;;;4994512;28;20929;-79
2023/01/08 02:42:06;;;;;;;3.97;2.10;;;7.80;99.90;;;;;;5007782;28;21237;-79
2023/01/08 02:44:43;;;;;;;2.73;2.20;;;7.80;99.90;;;;;;5007556;28;20225;-79
2023/01/08 02:47:23;;;;;;;3.20;2.00;;;7.80;99.90;;;;;;4993947;28;20228;-79
2023/01/08 02:49:54;;;;;;;2.33;1.93;;;7.80;99.90;;;;;;5014571;28;20254;-79
2023/01/08 02:52:23;;;;;;;2.90;2.20;;;7.80;99.90;;;;;;5009550;28;20227;-80
2023/01/08 02:54:50;;;;;;;2.13;1.93;;;7.80;99.90;;;;;;5011091;28;20291;-80
2023/01/08 02:57:19;;;;;;;2.50;2.00;;;7.80;99.90;;;;;;5009707;28;20217;-79
2023/01/08 02:59:49;;;;;;;3.73;2.30;;;7.80;99.90;;;;;;5007211;28;20787;-80
2023/01/08 03:02:17;;;;;;;2.53;2.33;;;7.80;99.90;;;;;;5008300;28;20228;-79
2023/01/08 03:04:50;;;;;;;2.33;1.97;;;7.70;99.90;;;;;;5008623;28;20233;-79
2023/01/08 03:07:17;;;;;;;3.83;2.33;;;7.70;99.90;;;;;;5003717;28;20285;-80
2023/01/08 03:09:44;;;;;;;3.10;2.47;;;7.70;99.90;;;;;;4990941;28;20286;-80
2023/01/08 03:12:16;;;;;;;2.80;2.30;;;7.70;99.90;;;;;;5008497;28;20220;-80
2023/01/08 03:14:50;;;;;;;2.77;2.10;;;7.70;99.90;;;;;;5006105;28;20238;-80
2023/01/08 03:17:21;;;;;;;3.00;2.20;;;7.70;99.90;;;;;;4991930;28;20241;-80
2023/01/08 03:19:50;;;;;;;4.20;2.50;;;7.70;99.90;;;;;;4993514;28;20268;-79
2023/01/08 03:22:18;;;;;;;3.20;2.47;;;7.70;99.90;;;;;;5004772;28;20216;-80
2023/01/08 03:24:48;;;;;;;2.43;2.20;;;7.70;99.90;;;;;;5013433;28;20334;-80
2023/01/08 03:27:18;;;;;;;2.93;2.13;;;7.70;99.90;;;;;;5007546;28;20300;-81
2023/01/08 03:29:48;;;;;;;2.57;2.03;;;7.80;99.90;;;;;;5007147;28;20240;-80
2023/01/08 03:32:18;;;;;;;3.77;2.57;;;7.80;99.90;;;;;;4990494;28;20227;-79
2023/01/08 03:34:47;;;;;;;2.63;2.20;;;7.80;99.90;;;;;;5003362;28;20937;-81
2023/01/08 03:37:15;;;;;;;3.90;2.10;;;7.80;99.90;;;;;;4991636;28;20219;-80
2023/01/08 03:39:44;;;;;;;3.53;2.10;;;7.80;99.90;;;;;;5004372;28;20254;-79
2023/01/08 03:42:14;;;;;;;2.30;2.10;;;7.80;99.90;;;;;;5004050;28;20290;-80
2023/01/08 03:44:41;;;;;;;4.53;2.27;;;7.80;99.90;;;;;;4997700;28;20240;-80
2023/01/08 03:47:11;;;;;;;3.33;2.60;;;7.90;99.90;;;;;;4989372;28;20574;-80
2023/01/08 03:49:40;;;;;;;2.80;2.20;;;7.80;99.90;;;;;;5000720;28;20232;-80
2023/01/08 03:52:07;;;;;;;2.53;2.30;;;7.80;99.90;;;;;;5000240;28;20258;-79
2023/01/08 03:54:35;;;;;;;3.30;2.47;;;7.80;99.90;;;;;;4997252;28;20616;-80
2023/01/08 03:57:03;;;;;;;2.77;2.13;;;7.80;99.90;;;;;;4999541;28;20219;-80
2023/01/08 03:59:29;;;;;;;3.93;2.50;;;7.80;99.90;;;;;;4988766;28;20227;-81
2023/01/08 04:01:56;;;;;;;3.00;2.07;;;7.80;99.90;;;;;;4998847;28;20220;-81
2023/01/08 04:04:24;;;;;;;2.70;2.30;;;7.80;99.90;;;;;;4981919;28;20219;-80
2023/01/08 04:06:52;;;;;;;2.10;1.90;;;7.80;99.90;;;;;;5003110;28;20218;-80
2023/01/08 04:09:19;;;;;;;2.60;2.40;;;7.70;99.90;;;;;;4983180;28;20245;-81
2023/01/08 04:11:46;;;;;;;2.73;2.30;;;7.80;99.90;;;;;;5000265;28;20272;-80
2023/01/08 04:14:12;;;;;;;3.23;2.30;;;7.70;99.90;;;;;;4987056;28;20240;-80
2023/01/08 04:16:39;;;;;;;2.63;2.30;;;7.70;99.90;;;;;;5000320;28;20229;-79
2023/01/08 04:19:06;;;;;;;3.80;2.60;;;7.80;99.90;;;;;;4989762;28;20313;-79
2023/01/08 04:21:34;;;;;;;3.00;2.33;;;7.80;99.90;;;;;;4989771;28;20224;-79
2023/01/08 04:24:01;;;;;;;3.50;2.37;;;7.80;99.90;;;;;;4997175;28;20287;-79
2023/01/08 04:26:28;;;;;;;3.70;2.60;;;7.80;99.90;;;;;;5004864;28;20780;-79
2023/01/08 04:28:55;;;;;;;2.50;1.90;;;7.80;99.90;;;;;;4989631;28;20803;-80
2023/01/08 04:31:22;;;;;;;3.03;2.27;;;7.80;99.90;;;;;;4983369;28;20213;-79
2023/01/08 04:33:49;;;;;;;2.83;2.23;;;7.80;99.90;;;;;;4997956;28;20239;-80
2023/01/08 04:36:16;;;;;;;2.50;2.30;;;7.80;99.90;;;;;;4989185;28;20265;-80
2023/01/08 04:38:44;;;;;;;3.07;2.20;;;7.80;99.90;;;;;;5002078;28;20461;-81
2023/01/08 04:41:11;;;;;;;2.40;2.20;;;7.80;99.90;;;;;;4982296;28;20227;-79
2023/01/08 04:43:37;;;;;;;2.57;2.30;;;7.80;99.90;;;;;;5001805;28;20217;-80
2023/01/08 04:46:06;;;;;;;2.57;2.37;;;7.80;99.90;;;;;;4992569;28;20237;-80
2023/01/08 04:48:33;;;;;;;3.97;2.47;;;7.80;99.90;;;;;;5004400;28;20218;-80
2023/01/08 04:51:01;;;;;;;2.93;2.63;;;7.90;99.90;;;;;;4986943;28;20226;-80
2023/01/08 04:53:28;;;;;;;2.40;2.20;;;7.90;99.90;;;;;;4999132;28;20229;-80
2023/01/08 04:55:56;;;;;;;2.80;2.10;;;7.90;99.90;;;;;;4998826;28;20236;-80
2023/01/08 04:58:23;;;;;;;3.70;2.20;;;7.90;99.90;;;;;;4983391;28;20301;-80
2023/01/08 05:00:50;;;;;;;4.20;2.30;;;7.90;99.90;;;;;;4996725;28;20229;-80
2023/01/08 05:03:16;;;;;;;2.93;2.30;;;7.90;99.90;;;;;;4994737;28;20279;-79
2023/01/08 05:05:43;;;;;;;2.83;2.30;;;7.90;99.90;;;;;;4989552;28;20363;-79
2023/01/08 05:08:10;;;;;;;2.80;2.30;;;8.00;99.90;;;;;;4985936;28;20218;-81
2023/01/08 05:10:37;;;;;;;2.50;2.27;;;8.00;99.90;;;;;;5001644;28;20227;-80
2023/01/08 05:13:05;;;;;;;3.23;2.30;;;8.00;99.90;;;;;;4987225;28;20781;-79
2023/01/08 05:15:32;;;;;;;2.73;2.17;;;8.00;99.90;;;;;;4993985;28;20229;-79
2023/01/08 05:18:00;;;;;;;3.00;2.20;;;8.00;99.90;;;;;;4988182;28;20222;-80
2023/01/08 05:20:27;;;;;;;3.93;2.43;;;8.00;99.90;;;;;;4987134;28;20223;-80
2023/01/08 05:22:53;;;;;;;3.23;2.60;;;8.00;99.90;;;;;;4983777;28;20281;-80
2023/01/08 05:25:21;;;;;;;3.03;2.03;;;8.00;99.90;;;;;;4986132;28;20231;-80
2023/01/08 05:27:47;;;;;;;3.13;2.20;;;8.00;99.90;;;;;;4999066;28;22028;-80
2023/01/08 05:30:17;;;;;;;3.83;2.43;;;8.00;99.90;;;;;;5004937;28;20218;-80
2023/01/08 05:32:44;;;;;;;5.27;2.20;;;8.00;99.90;;;;;;5005478;28;20582;-81
2023/01/08 05:35:11;;;;;;;3.13;2.60;;;8.00;99.90;;;;;;5002073;28;20307;-80
2023/01/08 05:37:38;;;;;;;3.80;2.30;;;8.00;99.90;;;;;;5000485;28;20341;-80
2023/01/08 05:40:06;;;;;;;3.67;2.50;;;8.00;99.90;;;;;;4992652;28;20254;-80
2023/01/08 05:42:34;;;;;;;3.40;2.53;;;8.00;99.90;;;;;;4980414;28;20317;-79
2023/01/08 05:45:01;;;;;;;4.73;2.13;;;8.00;99.90;;;;;;5006220;28;20281;-79
2023/01/08 05:47:30;;;;;;;3.10;2.50;;;8.00;99.90;;;;;;5002720;28;20251;-79
2023/01/08 05:49:57;;;;;;;3.33;2.20;;;8.00;99.90;;;;;;5006502;28;20234;-80
2023/01/08 05:52:25;;;;;;;4.00;2.70;;;8.00;99.90;;;;;;5006175;28;20917;-79
2023/01/08 05:54:52;;;;;;;2.90;2.10;;;8.00;99.90;;;;;;5006273;28;20226;-79
2023/01/08 05:57:19;;;;;;;2.37;2.17;;;8.00;99.90;;;;;;4988472;28;20222;-81
2023/01/08 05:59:45;;;;;;;2.50;2.20;;;8.00;99.90;;;;;;4983807;28;20322;-80
2023/01/08 06:02:12;;;;;;;2.73;2.20;;;8.00;99.90;;;;;;4981171;28;20594;-80
2023/01/08 06:04:40;;;;;;;3.57;2.20;;;8.00;99.90;;;;;;4985862;28;20220;-79
2023/01/08 06:07:07;;;;;;;3.30;2.20;;;8.00;99.90;;;;;;5000353;28;20311;-79
2023/01/08 06:09:34;;;;;;;2.70;2.40;;;8.00;99.90;;;;;;4985347;28;20236;-79
2023/01/08 06:12:00;;;;;;;2.57;2.03;;;7.90;99.90;;;;;;4995575;28;20231;-81
2023/01/08 06:14:27;;;;;;;2.90;2.50;;;7.90;99.90;;;;;;4983032;28;20229;-81
2023/01/08 06:16:54;;;;;;;2.97;2.40;;;7.90;99.90;;;;;;4996814;28;20226;-80
2023/01/08 06:19:21;;;;;;;2.73;2.23;;;7.90;99.90;;;;;;4981725;28;20723;-80
2023/01/08 06:21:49;;;;;;;2.77;2.43;;;7.90;99.90;;;;;;4995717;28;20230;-79
2023/01/08 06:24:16;;;;;;;3.47;2.47;;;7.80;99.90;;;;;;4994852;28;20220;-80
2023/01/08 06:26:43;;;;;;;2.53;2.23;;;7.80;99.90;;;;;;4990569;28;20231;-79
2023/01/08 06:29:10;;;;;;;2.40;2.20;;;7.80;99.90;;;;;;4984843;28;20225;-81
2023/01/08 06:31:37;;;;;;;5.37;2.73;;;7.80;99.90;;;;;;4996137;28;20251;-80
2023/01/08 06:34:03;;;;;;;2.87;2.50;;;7.80;99.90;;;;;;4984494;28;20602;-81
2023/01/08 06:36:30;;;;;;;3.50;2.60;;;7.80;99.90;;;;;;4996727;28;20233;-81
2023/01/08 06:39:01;;;;;;;3.33;2.20;;;7.70;99.90;;;;;;4999148;28;20284;-79
2023/01/08 06:41:27;;;;;;;3.33;2.40;;;7.70;99.90;;;;;;5008571;28;20228;-80
2023/01/08 06:43:54;;;;;;;3.50;2.30;;;7.70;99.90;;;;;;4997975;28;20246;-80
2023/01/08 06:46:21;;;;;;;3.27;2.70;;;7.70;99.90;;;;;;4999811;28;20280;-80
2023/01/08 06:48:47;;;;;;;3.57;3.03;;;7.70;99.90;;;;;;5004125;28;20405;-80
2023/01/08 06:51:14;;;;;;;2.50;2.30;;;7.70;99.90;;;;;;4990281;28;20237;-80
2023/01/08 06:53:41;;;;;;;2.70;2.23;;;7.70;99.90;;;;;;4999718;28;20310;-80
2023/01/08 06:56:09;;;;;;;3.90;2.67;;;7.70;99.90;;;;;;4985049;28;20228;-80
2023/01/08 06:58:38;;;;;;;2.60;2.27;;;7.70;99.90;;;;;;4991670;28;20229;-80
2023/01/08 07:01:05;;;;;;;4.63;3.53;;;7.60;99.90;;;;;;4977776;28;20702;-80
2023/01/08 07:03:31;;;;;;;6.63;5.03;;;7.70;99.90;;;;;;4980161;28;20224;-80
2023/01/08 07:05:58;;;;;;;5.83;3.30;;;7.60;99.90;;;;;;4986491;28;20228;-80
2023/01/08 07:08:25;;;;;;;4.97;3.77;;;7.60;99.90;;;;;;4997297;28;20972;-80
2023/01/08 07:10:52;;;;;;;6.30;4.97;;;7.60;99.90;;;;;;4994896;28;20234;-80
2023/01/08 07:13:21;;;;;;;5.70;3.20;;;7.60;99.90;;;;;;4983886;28;20228;-80
2023/01/08 07:15:48;;;;;;;5.30;3.80;;;7.60;99.90;;;;;;4992730;28;20275;-80
2023/01/08 07:18:14;;;;;;;7.33;5.77;;;7.60;99.90;;;;;;4990776;28;20217;-80
2023/01/08 07:20:41;;;;;;;14.73;9.47;;;7.60;99.90;;;;;;5000231;28;20320;-80
2023/01/08 07:23:12;;;;;;;6.33;4.00;;;7.60;99.90;;;;;;4995842;28;20228;-80
2023/01/08 07:25:40;;;;;;;3.60;2.83;;;7.60;99.90;;;;;;4999263;28;20586;-80
2023/01/08 07:28:10;;;;;;;3.90;3.50;;;7.60;99.90;;;;;;4999513;28;20238;-80
2023/01/08 07:30:38;;;;;;;3.70;3.17;;;7.60;99.90;;;;;;4997246;28;20325;-80
2023/01/08 07:33:05;;;;;;;3.30;2.70;;;7.60;99.90;;;;;;5000077;28;20229;-81
2023/01/08 07:35:32;;;;;;;2.80;2.40;;;7.60;99.90;;;;;;4998454;28;20246;-80
2023/01/08 07:37:58;;;;;;;3.17;2.67;;;7.60;99.90;;;;;;4982868;28;20282;-80
2023/01/08 07:40:25;;;;;;;4.03;3.60;;;7.60;99.90;;;;;;4985034;28;20316;-80
2023/01/08 07:42:59;;;;;;;2.90;2.60;;;7.60;99.90;;;;;;5000393;28;20236;-80
2023/01/08 07:45:26;;;;;;;3.70;2.60;;;7.60;99.90;;;;;;5008010;28;20617;-80
2023/01/08 07:47:56;;;;;;;2.63;2.40;;;7.60;99.90;;;;;;4999022;28;20232;-80
2023/01/08 07:50:23;;;;;;;3.50;2.40;;;7.60;99.90;;;;;;4997252;28;20241;-80
2023/01/08 07:52:50;;;;;;;5.03;2.60;;;7.60;99.90;;;;;;4998151;28;20234;-80
2023/01/08 07:55:16;;;;;;;3.13;2.40;;;7.60;99.90;;;;;;4994061;28;20281;-80
2023/01/08 07:57:43;;;;;;;3.43;2.90;;;7.60;99.90;;;;;;4994774;28;21122;-80
2023/01/08 08:00:12;;;;;;;2.83;2.50;;;7.70;99.90;;;;;;4995914;28;20587;-81
2023/01/08 08:02:40;;;;;;;3.53;2.43;;;7.70;99.90;;;;;;4982691;28;20227;-78
2023/01/08 08:05:11;;;;;;;2.37;2.17;;;7.70;99.90;;;;;;5002135;28;20848;-79
2023/01/08 08:07:38;;;;;;;4.20;2.80;;;7.70;99.90;;;;;;4989430;28;20851;-79
2023/01/08 08:10:06;;;;;;;3.40;2.50;;;7.70;99.90;;;;;;4997351;28;20221;-79
2023/01/08 08:12:32;;;;;;;3.47;2.50;;;7.80;99.90;;;;;;4984496;28;20225;-80
2023/01/08 08:14:59;;;;;;;3.53;2.50;;;7.80;99.90;;;;;;5008944;28;20337;-79
2023/01/08 08:17:26;;;;;;;2.70;2.33;;;7.80;99.90;;;;;;5007052;28;20226;-79
2023/01/08 08:19:52;;;;;;;4.67;2.80;;;7.80;99.90;;;;;;5008580;28;20630;-80
2023/01/08 08:22:20;;;;;;;4.07;2.60;;;7.80;99.90;;;;;;4999977;28;20228;-81
2023/01/08 08:24:47;;;;;;;4.30;2.53;;;7.80;99.90;;;;;;4985440;28;20232;-77
2023/01/08 08:27:14;;;;;;;5.03;2.63;;;7.80;99.90;;;;;;4984545;28;21286;-77
2023/01/08 08:29:40;;;;;;;3.70;2.40;;;7.80;99.90;;;;;;4998405;28;21135;-79
2023/01/08 08:32:07;;;;;;;2.90;2.33;;;7.80;99.90;;;;;;4986143;28;20914;-79
2023/01/08 08:34:34;;;;;;;3.13;2.50;;;7.80;99.90;;;;;;4995928;28;20229;-79
2023/01/08 08:37:00;;;;;;;4.23;2.80;;;7.80;99.90;;;;;;4985770;28;20721;-79
2023/01/08 08:39:28;;;;;;;4.00;2.70;;;7.90;99.90;;;;;;4997205;28;20222;-79
2023/01/08 08:41:55;;;;;;;19.90;9.43;;;7.90;99.90;;;;;;5002452;28;20294;-80
2023/01/08 08:44:22;;;;;;;5.30;3.13;;;7.90;99.90;;;;;;5004500;28;20219;-79
2023/01/08 08:46:48;;;;;;;7.37;4.73;;;7.80;99.90;;;;;;4982138;28;21211;-79
2023/01/08 08:49:15;;;;;;;3.70;3.37;;;7.90;99.90;;;;;;4999617;28;20273;-79
2023/01/08 08:51:42;;;;;;;3.90;3.10;;;7.80;99.90;;;;;;4978180;28;20235;-77
2023/01/08 08:54:12;;;;;;;3.10;2.80;;;7.80;99.90;;;;;;4997440;28;20228;-78
2023/01/08 08:56:40;;;;;;;3.27;2.60;;;7.80;99.90;;;;;;4984730;28;21038;-77
2023/01/08 08:59:08;;;;;;;3.17;2.87;;;7.80;99.90;;;;;;4984090;28;20285;-77
2023/01/08 09:01:34;;;;;;;5.00;2.90;;;7.80;99.90;;;;;;4999233;28;20231;-78
2023/01/08 09:04:01;;;;;;;3.50;2.70;;;7.80;99.90;;;;;;4982691;28;20870;-78
2023/01/08 09:06:28;;;;;;;3.73;2.80;;;7.90;99.90;;;;;;4993087;28;20247;-80
2023/01/08 09:08:58;;;;;;;2.97;2.70;;;7.80;99.90;;;;;;5002584;28;20229;-81
2023/01/08 09:11:28;;;;;;;18.37;10.27;;;7.80;99.90;;;;;;4982376;28;20228;-81
2023/01/08 09:13:57;;;;;;;13.07;8.80;;;7.80;99.90;;;;;;4987399;28;20228;-81
2023/01/08 09:16:26;;;;;;;8.90;6.67;;;7.90;99.90;;;;;;4982701;28;20241;-81
2023/01/08 09:18:53;;;;;;;5.83;4.33;;;7.90;99.90;;;;;;4982804;28;20267;-81
2023/01/08 09:21:20;;;;;;;5.43;3.57;;;7.90;99.90;;;;;;4984252;28;20304;-81
2023/01/08 09:23:48;;;;;;;4.40;3.33;;;8.00;99.90;;;;;;5004914;28;20225;-81
2023/01/08 09:26:15;;;;;;;3.77;2.90;;;8.00;99.90;;;;;;4986004;28;20242;-81
2023/01/08 09:28:41;;;;;;;4.60;2.90;;;8.00;99.90;;;;;;4991441;28;20229;-80
2023/01/08 09:31:09;;;;;;;3.60;3.00;;;8.00;99.90;;;;;;4985052;28;20229;-81
2023/01/08 09:33:36;;;;;;;3.77;2.97;;;8.00;99.90;;;;;;4988015;28;20222;-81
2023/01/08 09:36:03;;;;;;;3.20;2.67;;;8.10;99.90;;;;;;4978771;28;20288;-81
2023/01/08 09:38:30;;;;;;;5.00;3.03;;;8.10;99.90;;;;;;5000931;28;20236;-81
2023/01/08 09:41:00;;;;;;;4.97;3.10;;;8.00;99.90;;;;;;5007677;28;20229;-81
2023/01/08 09:43:30;;;;;;;3.53;3.23;;;8.00;99.90;;;;;;5006745;28;20221;-79
2023/01/08 09:46:00;;;;;;;3.53;2.83;;;8.10;99.90;;;;;;5000891;28;20238;-80
2023/01/08 09:48:35;;;;;;;3.70;2.77;;;8.10;99.90;;;;;;4985179;28;21184;-81
2023/01/08 09:51:02;;;;;;;3.57;3.10;;;8.20;99.90;;;;;;4988747;28;20223;-81
2023/01/08 09:53:29;;;;;;;4.87;3.17;;;8.20;99.90;;;;;;5002801;28;20229;-81
2023/01/08 09:56:00;;;;;;;4.23;3.00;;;8.20;99.90;;;;;;4981326;28;20622;-81
2023/01/08 09:58:35;;;;;;;6.73;5.10;;;8.30;99.90;;;;;;4990968;28;20730;-81
2023/01/08 10:01:06;;;;;;;4.93;3.03;;;8.30;99.90;;;;;;5000133;28;20226;-81
2023/01/08 10:03:40;;;;;;;2.83;2.53;;;8.40;99.90;;;;;;4995739;28;20230;-81
2023/01/08 10:06:13;;;;;;;2.97;2.33;;;8.50;99.90;;;;;;5003575;28;20230;-81
2023/01/08 10:08:41;;;;;;;3.57;2.57;;;8.50;99.90;;;;;;5004142;28;20229;-82
2023/01/08 10:11:09;;;;;;;2.60;2.00;;;8.50;99.90;;;;;;4998032;28;20775;-81
2023/01/08 10:13:38;;;;;;;3.77;2.23;;;8.60;99.90;;;;;;5007535;28;20219;-81
2023/01/08 10:16:11;;;;;;;2.93;2.33;;;8.70;99.90;;;;;;4989736;28;20877;-81
2023/01/08 10:18:40;;;;;;;3.43;2.23;;;8.70;99.90;;;;;;4999455;28;20233;-81
2023/01/08 10:21:12;;;;;;;3.87;2.50;;;8.70;99.90;;;;;;4999888;28;20227;-81
2023/01/08 10:23:49;;;;;;;3.40;2.13;;;8.70;99.90;;;;;;5004112;28;20321;-81
2023/01/08 10:26:26;;;;;;;3.30;2.30;;;8.70;99.90;;;;;;5007163;28;20313;-81
2023/01/08 10:28:52;;;;;;;2.73;2.27;;;8.70;99.90;;;;;;5005189;28;20312;-81
2023/01/08 10:31:21;;;;;;;3.03;2.00;;;8.80;99.90;;;;;;4991682;28;20229;-81
2023/01/08 10:33:52;;;;;;;3.67;2.00;;;8.70;99.90;;;;;;4993978;28;20332;-81
2023/01/08 10:36:26;;;;;;;3.30;2.30;;;8.70;99.90;;;;;;5003726;28;20261;-82
2023/01/08 10:39:00;;;;;;;3.70;2.13;;;8.70;99.90;;;;;;4988883;28;20229;-81
2023/01/08 10:41:28;;;;;;;4.30;2.87;;;8.70;99.90;;;;;;5000358;28;20296;-81
2023/01/08 10:43:58;;;;;;;2.73;2.30;;;8.80;99.90;;;;;;4991389;28;20832;-81
2023/01/08 10:46:28;;;;;;;2.80;2.20;;;8.80;99.90;;;;;;4987616;28;20313;-81
2023/01/08 10:48:58;;;;;;;4.17;2.03;;;8.80;99.90;;;;;;4980525;28;20223;-81
2023/01/08 10:51:27;;;;;;;2.33;1.83;;;8.80;99.90;;;;;;4999038;28;20231;-80
2023/01/08 10:53:58;;;;;;;2.30;1.83;;;8.80;99.90;;;;;;5002127;28;20219;-80
2023/01/08 10:56:26;;;;;;;3.57;1.87;;;8.80;99.90;;;;;;4992567;28;20454;-81
2023/01/08 10:58:53;;;;;;;4.00;2.37;;;8.80;99.90;;;;;;4998389;28;20255;-81
2023/01/08 11:01:23;;;;;;;2.43;1.80;;;8.80;99.90;;;;;;5003663;28;20230;-80
2023/01/08 11:03:51;;;;;;;2.43;2.07;;;8.80;99.90;;;;;;4996045;28;20228;-80
2023/01/08 11:06:22;;;;;;;2.93;2.00;;;8.70;99.90;;;;;;4999295;28;20255;-81
2023/01/08 11:08:54;;;;;;;4.73;2.30;;;8.70;99.90;;;;;;5000749;28;20688;-81
2023/01/08 11:11:22;;;;;;;2.80;2.30;;;8.70;99.90;;;;;;4995347;28;20760;-81
2023/01/08 11:13:56;;;;;;;2.60;2.13;;;8.60;99.90;;;;;;4979727;28;20230;-81
2023/01/08 11:16:30;;;;;;;2.57;2.27;;;8.60;99.90;;;;;;4999355;28;20220;-81
2023/01/08 11:19:00;;;;;;;3.03;2.10;;;8.60;99.90;;;;;;4985003;28;20218;-81
2023/01/08 11:21:30;;;;;;;3.37;2.43;;;8.50;99.90;;;;;;5001686;28;20242;-82
2023/01/08 11:24:24;;;;;;;2.87;2.30;;;8.50;99.90;;;;;;4999593;28;20224;-84
2023/01/08 11:26:53;;;;;;;2.90;2.33;;;8.40;99.90;;;;;;4995606;28;20229;-81
2023/01/08 11:29:27;;;;;;;4.57;2.27;;;8.40;99.90;;;;;;4984617;28;20232;-81
2023/01/08 11:32:07;;;;;;;2.57;2.37;;;8.40;99.90;;;;;;5000110;28;20225;-81
2023/01/08 11:34:40;;;;;;;8.00;3.87;;;8.40;99.90;;;;;;4993023;28;20231;-81
2023/01/08 11:37:14;;;;;;;8.27;6.13;;;8.40;99.90;;;;;;4997727;28;20704;-78
2023/01/08 11:39:41;;;;;;;8.13;5.87;;;8.50;99.90;;;;;;5002299;28;20225;-78
2023/01/08 11:42:20;;;;;;;9.10;6.80;;;8.50;99.90;;;;;;4998264;28;20231;-81
2023/01/08 11:44:59;;;;;;;8.83;7.27;;;8.50;99.90;;;;;;5016259;28;20314;-81
2023/01/08 11:47:39;;;;;;;4.87;3.17;;;8.60;99.90;;;;;;4985661;28;20233;-81
2023/01/08 11:50:17;;;;;;;4.60;3.50;;;8.60;99.90;;;;;;4999381;28;20227;-82
2023/01/08 11:53:03;;;;;;;3.97;3.23;;;8.70;99.90;;;;;;5001792;28;20222;-81
2023/01/08 11:55:41;;;;;;;5.03;3.50;;;8.80;99.90;;;;;;4987847;28;20230;-81
2023/01/08 11:58:23;;;;;;;3.23;2.90;;;8.90;99.90;;;;;;4988431;28;20233;-81
2023/01/08 12:01:22;;;;;;;3.93;3.20;;;9.00;99.90;;;;;;5005606;28;20227;-82
2023/01/08 12:03:54;;;;;;;4.77;4.27;;;9.10;99.90;;;;;;4954275;28;20228;-82
2023/01/08 12:06:29;;;;;;;3.50;3.10;;;9.10;99.90;;;;;;4999524;28;20233;-81
2023/01/08 12:09:10;;;;;;;4.77;3.90;;;9.10;99.90;;;;;;4985196;28;20610;-83
2023/01/08 12:11:42;;;;;;;5.33;3.10;;;9.10;99.90;;;;;;5004178;28;20244;-82
2023/01/08 12:14:26;;;;;;;13.67;7.93;;;9.10;99.90;;;;;;5003247;28;20221;-81
2023/01/08 12:17:07;;;;;;;6.57;4.77;;;9.10;99.90;;;;;;5000236;28;20223;-80
2023/01/08 12:19:48;;;;;;;3.10;2.80;;;9.10;99.90;;;;;;4995492;28;20889;-80
2023/01/08 12:22:31;;;;;;;2.20;2.00;;;9.10;99.90;;;;;;4980752;28;20237;-80
2023/01/08 12:25:26;;;;;;;2.83;2.27;;;9.10;99.90;;;;;;4988860;28;20225;-81
2023/01/08 12:28:02;;;;;;;7.13;3.87;;;9.10;99.90;;;;;;5002000;28;20236;-81
2023/01/08 12:30:46;;;;;;;3.60;3.10;;;9.10;99.90;;;;;;4997717;28;20578;-81
2023/01/08 12:33:22;;;;;;;4.83;3.70;;;9.20;99.90;;;;;;5000389;28;20235;-82
2023/01/08 12:35:53;;;;;;;4.37;2.97;;;9.30;99.90;;;;;;4987308;28;20559;-82
2023/01/08 12:38:25;;;;;;;2.60;2.40;;;9.30;99.90;;;;;;4987650;28;20256;-81
2023/01/08 12:41:05;;;;;;;2.40;2.17;;;9.40;99.90;;;;;;4989940;28;20228;-82
2023/01/08 12:43:38;;;;;;;5.30;2.87;;;9.40;99.90;;;;;;4982986;28;20230;-82
2023/01/08 12:46:07;;;;;;;3.50;2.30;;;9.50;99.90;;;;;;5001688;28;20228;-81
2023/01/08 12:48:37;;;;;;;2.40;2.20;;;9.50;99.90;;;;;;5000644;28;20237;-81
2023/01/08 12:51:10;;;;;;;4.33;2.70;;;9.60;99.90;;;;;;5002343;28;20606;-82
2023/01/08 12:53:47;;;;;;;2.50;2.30;;;9.50;99.90;;;;;;4985174;28;20236;-81
2023/01/08 12:56:20;;;;;;;4.47;4.07;;;9.60;99.90;;;;;;4994936;28;20235;-80
2023/01/08 12:59:22;;;;;;;2.50;2.30;;;9.60;99.90;;;;;;5004323;28;20573;-81
2023/01/08 13:01:53;;;;;;;4.47;2.93;;;9.50;99.90;;;;;;4998874;28;20232;-82
2023/01/08 13:04:20;;;;;;;5.07;2.93;;;9.60;99.90;;;;;;5000078;28;20233;-79
2023/01/08 13:06:54;;;;;;;2.77;1.80;;;9.50;99.90;;;;;;5008313;28;20238;-80
2023/01/08 13:09:31;;;;;;;2.53;2.27;;;9.50;99.90;;;;;;4999976;28;20237;-83